createdAt,value
2018-09-03T00:00:36.498Z,15.00
2018-09-03T00:03:04.934Z,15.10
2018-09-03T00:05:33.236Z,14.60
2018-09-03T00:08:01.353Z,15.00
2018-09-03T00:10:29.497Z,14.90
2018-09-03T00:12:57.633Z,15.00
2018-09-03T00:15:25.794Z,15.00
2018-09-03T00:22:49.845Z,15.10
2018-09-03T00:25:17.984Z,15.10
2018-09-03T00:27:46.152Z,15.10
2018-09-03T00:32:47.691Z,14.80
2018-09-03T00:38:55.334Z,15.00
2018-09-03T00:41:29.042Z,15.00
2018-09-03T00:44:02.694Z,15.00
2018-09-03T00:46:36.382Z,15.10
2018-09-03T00:49:04.573Z,15.10
2018-09-03T00:51:32.740Z,15.10
2018-09-03T00:54:00.921Z,15.40
2018-09-03T00:56:29.081Z,15.10
2018-09-03T00:58:57.238Z,15.10
2018-09-03T01:01:25.394Z,15.50
2018-09-03T01:03:53.879Z,15.00
2018-09-03T01:06:22.039Z,15.10
2018-09-03T01:08:50.194Z,15.10
2018-09-03T01:11:18.353Z,15.10
2018-09-03T01:16:14.449Z,15.10
2018-09-03T01:18:44.521Z,15.00
2018-09-03T01:23:40.902Z,15.10
2018-09-03T01:26:09.098Z,15.20
2018-09-03T01:28:37.269Z,15.20
2018-09-03T01:31:05.718Z,15.10
2018-09-03T01:33:33.988Z,15.10
2018-09-03T01:38:30.170Z,15.10
2018-09-03T01:40:58.443Z,15.10
2018-09-03T01:43:26.745Z,15.40
2018-09-03T01:45:54.865Z,15.10
2018-09-03T01:48:23.025Z,14.70
2018-09-03T01:50:51.190Z,15.80
2018-09-03T01:53:19.342Z,15.10
2018-09-03T01:55:47.478Z,15.10
2018-09-03T02:00:43.554Z,15.10
2018-09-03T02:03:11.736Z,15.10
2018-09-03T02:05:39.904Z,15.30
2018-09-03T02:08:08.042Z,15.00
2018-09-03T02:10:36.181Z,15.20
2018-09-03T02:13:04.345Z,15.10
2018-09-03T02:15:32.508Z,15.10
2018-09-03T02:18:00.677Z,14.90
2018-09-03T02:20:28.902Z,14.90
2018-09-03T02:22:57.085Z,15.00
2018-09-03T02:25:25.265Z,15.00
2018-09-03T02:30:21.350Z,15.10
2018-09-03T02:32:49.525Z,15.00
2018-09-03T02:35:17.661Z,15.10
2018-09-03T02:37:45.811Z,14.60
2018-09-03T02:40:13.937Z,15.40
2018-09-03T02:42:42.106Z,15.10
2018-09-03T02:45:10.890Z,15.70
2018-09-03T02:47:39.421Z,15.10
2018-09-03T02:50:08.020Z,15.40
2018-09-03T02:52:36.565Z,15.20
2018-09-03T02:55:04.724Z,15.20
2018-09-03T02:57:33.249Z,15.10
2018-09-03T03:02:29.344Z,15.20
2018-09-03T03:04:57.493Z,15.20
2018-09-03T03:07:25.650Z,15.10
2018-09-03T03:09:54.072Z,15.00
2018-09-03T03:12:22.283Z,15.10
2018-09-03T03:14:51.037Z,14.80
2018-09-03T03:17:19.604Z,15.10
2018-09-03T03:19:47.760Z,14.80
2018-09-03T03:22:15.898Z,15.10
2018-09-03T03:24:44.541Z,15.20
2018-09-03T03:27:12.822Z,15.20
2018-09-03T03:29:41.087Z,14.90
2018-09-03T03:32:09.217Z,15.10
2018-09-03T03:34:37.408Z,15.10
2018-09-03T03:37:05.622Z,15.10
2018-09-03T03:39:33.813Z,15.10
2018-09-03T03:42:01.966Z,15.10
2018-09-03T03:44:30.152Z,15.10
2018-09-03T03:46:58.322Z,14.90
2018-09-03T03:49:26.504Z,15.20
2018-09-03T03:51:54.716Z,15.10
2018-09-03T03:54:22.888Z,15.20
2018-09-03T03:56:51.033Z,15.30
2018-09-03T03:59:19.178Z,15.10
2018-09-03T04:01:47.757Z,15.10
2018-09-03T04:04:15.920Z,15.20
2018-09-03T04:06:44.072Z,15.20
2018-09-03T04:09:12.308Z,15.10
2018-09-03T04:11:41.263Z,15.20
2018-09-03T04:14:09.502Z,15.20
2018-09-03T04:16:37.697Z,15.40
2018-09-03T04:19:05.881Z,15.20
2018-09-03T04:21:34.050Z,15.20
2018-09-03T04:24:02.210Z,15.40
2018-09-03T04:26:30.389Z,15.20
2018-09-03T04:28:58.545Z,15.20
2018-09-03T04:31:26.728Z,15.20
2018-09-03T04:33:54.889Z,15.20
2018-09-03T04:36:23.053Z,15.20
2018-09-03T04:38:51.323Z,15.20
2018-09-03T04:41:19.357Z,15.20
2018-09-03T04:43:47.501Z,15.20
2018-09-03T04:46:15.732Z,15.20
2018-09-03T04:48:43.868Z,15.20
2018-09-03T04:51:12.017Z,15.20
2018-09-03T04:53:40.151Z,15.30
2018-09-03T04:56:08.277Z,15.20
2018-09-03T04:58:36.401Z,15.00
2018-09-03T05:01:04.573Z,15.30
2018-09-03T05:03:32.706Z,15.30
2018-09-03T05:06:00.876Z,15.30
2018-09-03T05:08:29.053Z,15.30
2018-09-03T05:10:57.189Z,15.10
2018-09-03T05:13:25.335Z,15.30
2018-09-03T05:15:53.469Z,14.90
2018-09-03T05:18:21.619Z,15.40
2018-09-03T05:20:49.769Z,15.40
2018-09-03T05:23:17.911Z,15.40
2018-09-03T05:25:46.058Z,15.40
2018-09-03T05:30:42.169Z,15.60
2018-09-03T05:33:10.313Z,15.40
2018-09-03T05:35:38.478Z,15.40
2018-09-03T05:38:06.617Z,15.60
2018-09-03T05:40:34.756Z,15.50
2018-09-03T05:43:02.923Z,15.50
2018-09-03T05:45:31.072Z,15.10
2018-09-03T05:47:59.237Z,15.60
2018-09-03T05:50:27.511Z,15.60
2018-09-03T05:52:55.542Z,15.40
2018-09-03T05:55:23.682Z,15.60
2018-09-03T05:57:51.866Z,15.50
2018-09-03T06:00:20.146Z,15.60
2018-09-03T06:02:48.318Z,15.50
2018-09-03T06:05:16.473Z,15.60
2018-09-03T06:07:44.620Z,15.70
2018-09-03T06:10:12.758Z,15.70
2018-09-03T06:12:40.994Z,15.70
2018-09-03T06:15:09.119Z,15.70
2018-09-03T06:17:37.268Z,15.80
2018-09-03T06:20:05.398Z,16.10
2018-09-03T06:22:33.543Z,15.90
2018-09-03T06:25:01.690Z,15.90
2018-09-03T06:27:29.846Z,15.90
2018-09-03T06:29:57.978Z,16.00
2018-09-03T06:32:26.149Z,16.00
2018-09-03T06:34:54.290Z,16.00
2018-09-03T06:37:22.441Z,16.10
2018-09-03T06:39:50.593Z,16.10
2018-09-03T06:42:18.755Z,16.10
2018-09-03T06:44:46.915Z,16.10
2018-09-03T06:47:15.114Z,16.20
2018-09-03T06:49:43.310Z,16.30
2018-09-03T06:52:11.527Z,16.50
2018-09-03T06:54:39.691Z,16.60
2018-09-03T06:57:07.840Z,16.40
2018-09-03T06:59:36.057Z,16.50
2018-09-03T07:02:04.173Z,16.50
2018-09-03T07:04:32.321Z,16.50
2018-09-03T07:07:00.450Z,16.20
2018-09-03T07:09:28.603Z,16.40
2018-09-03T07:11:56.740Z,16.60
2018-09-03T07:14:24.908Z,16.30
2018-09-03T07:16:53.132Z,16.40
2018-09-03T07:19:21.354Z,16.40
2018-09-03T07:21:49.493Z,16.40
2018-09-03T07:24:17.654Z,16.40
2018-09-03T07:26:45.798Z,16.40
2018-09-03T07:29:13.965Z,16.40
2018-09-03T07:31:42.147Z,16.50
2018-09-03T07:34:10.313Z,16.60
2018-09-03T07:36:38.454Z,16.20
2018-09-03T07:39:07.214Z,16.10
2018-09-03T07:41:35.366Z,16.60
2018-09-03T07:46:31.462Z,16.40
2018-09-03T07:51:27.565Z,16.20
2018-09-03T07:53:55.820Z,16.60
2018-09-03T07:56:23.977Z,16.50
2018-09-03T07:58:52.170Z,16.50
2018-09-03T08:01:20.369Z,16.50
2018-09-03T08:03:48.463Z,16.50
2018-09-03T08:06:16.623Z,16.50
2018-09-03T08:08:44.778Z,16.50
2018-09-03T08:11:12.922Z,16.50
2018-09-03T08:13:42.149Z,16.60
2018-09-03T08:16:11.026Z,16.60
2018-09-03T08:18:39.812Z,16.60
2018-09-03T08:21:07.963Z,16.60
2018-09-03T08:23:36.122Z,16.60
2018-09-03T08:26:04.544Z,16.60
2018-09-03T08:28:32.715Z,16.30
2018-09-03T08:31:01.209Z,17.20
2018-09-03T08:33:29.341Z,16.60
2018-09-03T08:35:58.079Z,16.60
2018-09-03T08:38:26.225Z,16.70
2018-09-03T08:40:54.369Z,16.60
2018-09-03T08:43:22.539Z,16.20
2018-09-03T08:45:50.693Z,16.40
2018-09-03T08:48:18.837Z,16.60
2018-09-03T08:50:46.985Z,16.60
2018-09-03T08:53:15.122Z,16.70
2018-09-03T08:55:43.269Z,16.50
2018-09-03T08:58:11.400Z,16.50
2018-09-03T09:00:39.553Z,16.60
2018-09-03T09:04:10.694Z,16.40
2018-09-03T09:06:38.854Z,16.50
2018-09-03T09:09:07.333Z,16.60
2018-09-03T09:11:35.504Z,16.60
2018-09-03T09:14:04.089Z,16.70
2018-09-03T09:16:32.386Z,17.50
2018-09-03T09:19:00.538Z,16.80
2018-09-03T09:23:56.611Z,16.80
2018-09-03T09:26:24.808Z,16.80
2018-09-03T09:28:52.948Z,17.00
2018-09-03T09:31:21.092Z,16.90
2018-09-03T09:33:49.229Z,16.80
2018-09-03T09:36:17.382Z,17.00
2018-09-03T09:38:45.521Z,17.00
2018-09-03T09:41:13.670Z,17.10
2018-09-03T09:43:41.810Z,17.20
2018-09-03T09:46:09.970Z,17.20
2018-09-03T09:48:38.158Z,17.50
2018-09-03T09:51:06.370Z,17.40
2018-09-03T09:53:34.506Z,17.20
2018-09-03T09:56:02.655Z,17.20
2018-09-03T09:58:30.882Z,17.10
2018-09-03T10:01:04.522Z,17.20
2018-09-03T10:03:33.126Z,17.20
2018-09-03T10:06:01.278Z,17.20
2018-09-03T10:08:29.451Z,17.30
2018-09-03T10:10:57.597Z,16.70
2018-09-03T10:13:25.830Z,17.00
2018-09-03T10:15:54.035Z,17.00
2018-09-03T10:18:22.181Z,17.00
2018-09-03T10:20:50.349Z,17.00
2018-09-03T10:23:18.569Z,17.10
2018-09-03T10:25:46.790Z,17.20
2018-09-03T10:28:14.949Z,17.30
2018-09-03T10:30:43.115Z,17.20
2018-09-03T10:33:11.286Z,17.10
2018-09-03T10:35:39.455Z,17.10
2018-09-03T10:38:07.694Z,17.20
2018-09-03T10:40:35.805Z,17.30
2018-09-03T10:43:03.963Z,17.30
2018-09-03T10:45:32.123Z,17.60
2018-09-03T10:48:00.310Z,17.80
2018-09-03T10:50:28.439Z,18.50
2018-09-03T10:52:56.586Z,18.90
2018-09-03T10:55:24.725Z,19.00
2018-09-03T10:57:52.891Z,19.10
2018-09-03T11:00:21.019Z,19.20
2018-09-03T11:05:17.158Z,19.60
2018-09-03T11:07:45.221Z,19.10
2018-09-03T11:10:13.383Z,18.50
2018-09-03T11:12:41.534Z,18.50
2018-09-03T11:15:09.676Z,18.40
2018-09-03T11:17:37.823Z,18.50
2018-09-03T11:20:08.061Z,18.50
2018-09-03T11:22:36.178Z,18.90
2018-09-03T11:25:04.317Z,19.00
2018-09-03T11:27:32.462Z,19.00
2018-09-03T11:30:00.609Z,18.50
2018-09-03T11:32:28.754Z,19.50
2018-09-03T11:34:56.956Z,19.10
2018-09-03T11:37:25.050Z,19.30
2018-09-03T11:39:53.201Z,19.30
2018-09-03T11:42:21.342Z,19.20
2018-09-03T11:44:49.501Z,19.40
2018-09-03T11:47:17.629Z,19.40
2018-09-03T11:49:45.913Z,19.80
2018-09-03T11:52:14.056Z,19.60
2018-09-03T11:54:42.222Z,19.60
2018-09-03T11:57:10.442Z,19.80
2018-09-03T11:59:38.577Z,19.80
2018-09-03T12:02:06.825Z,19.60
2018-09-03T12:04:34.956Z,19.50
2018-09-03T12:07:03.115Z,19.40
2018-09-03T12:09:31.282Z,19.20
2018-09-03T12:11:59.444Z,19.40
2018-09-03T12:14:30.198Z,19.40
2018-09-03T12:16:58.684Z,19.90
2018-09-03T12:19:26.826Z,19.50
2018-09-03T12:21:54.966Z,19.50
2018-09-03T12:24:23.098Z,19.50
2018-09-03T12:26:51.237Z,19.30
2018-09-03T12:29:19.385Z,19.30
2018-09-03T12:31:47.515Z,19.10
2018-09-03T12:34:15.672Z,19.10
2018-09-03T12:36:43.846Z,19.00
2018-09-03T12:39:12.027Z,19.30
2018-09-03T12:41:40.193Z,19.20
2018-09-03T12:44:08.371Z,19.20
2018-09-03T12:46:36.536Z,19.40
2018-09-03T12:49:04.722Z,19.60
2018-09-03T12:51:32.909Z,19.50
2018-09-03T12:54:01.015Z,19.80
2018-09-03T12:56:29.158Z,19.70
2018-09-03T12:58:57.311Z,20.40
2018-09-03T13:01:25.536Z,20.40
2018-09-03T13:03:53.677Z,20.10
2018-09-03T13:06:21.810Z,20.10
2018-09-03T13:08:49.949Z,20.50
2018-09-03T13:11:18.117Z,20.50
2018-09-03T13:13:46.266Z,20.60
2018-09-03T13:16:14.424Z,20.60
2018-09-03T13:21:10.549Z,20.80
2018-09-03T13:23:38.698Z,21.10
2018-09-03T13:26:06.891Z,21.00
2018-09-03T13:28:35.046Z,21.00
2018-09-03T13:31:03.261Z,21.10
2018-09-03T13:33:31.405Z,21.20
2018-09-03T13:35:59.666Z,21.10
2018-09-03T13:38:27.762Z,21.00
2018-09-03T13:40:55.931Z,21.00
2018-09-03T13:43:24.101Z,20.90
2018-09-03T13:45:52.256Z,20.90
2018-09-03T13:48:20.478Z,20.80
2018-09-03T13:50:48.573Z,20.90
2018-09-03T13:53:17.750Z,20.70
2018-09-03T13:55:45.943Z,20.90
2018-09-03T13:58:14.082Z,21.10
2018-09-03T14:00:42.235Z,21.10
2018-09-03T14:03:10.369Z,21.30
2018-09-03T14:08:06.429Z,21.40
2018-09-03T14:10:34.597Z,21.50
2018-09-03T14:13:03.123Z,21.80
2018-09-03T14:15:31.234Z,22.10
2018-09-03T14:20:27.333Z,21.60
2018-09-03T14:22:55.478Z,22.00
2018-09-03T14:25:23.639Z,22.20
2018-09-03T14:27:51.771Z,22.10
2018-09-03T14:30:19.917Z,22.10
2018-09-03T14:32:48.091Z,22.20
2018-09-03T14:35:16.225Z,22.30
2018-09-03T14:37:44.359Z,22.00
2018-09-03T14:40:12.490Z,22.10
2018-09-03T14:42:40.735Z,22.10
2018-09-03T14:45:08.894Z,22.10
2018-09-03T14:47:36.984Z,22.10
2018-09-03T14:50:05.704Z,22.20
2018-09-03T14:52:33.904Z,21.80
2018-09-03T14:55:02.044Z,21.80
2018-09-03T14:57:30.189Z,21.70
2018-09-03T14:59:58.335Z,21.80
2018-09-03T15:02:26.511Z,21.90
2018-09-03T15:04:54.637Z,21.30
2018-09-03T15:07:22.805Z,21.80
2018-09-03T15:09:50.957Z,21.30
2018-09-03T15:12:19.096Z,21.60
2018-09-03T15:14:47.277Z,21.60
2018-09-03T15:17:15.417Z,21.10
2018-09-03T15:19:43.569Z,21.30
2018-09-03T15:22:11.803Z,21.40
2018-09-03T15:24:40.002Z,21.30
2018-09-03T15:27:08.180Z,21.40
2018-09-03T15:29:36.439Z,21.60
2018-09-03T15:32:04.575Z,21.80
2018-09-03T15:34:32.815Z,21.80
2018-09-03T15:37:00.969Z,21.70
2018-09-03T15:39:29.094Z,21.50
2018-09-03T15:41:57.576Z,21.40
2018-09-03T15:44:25.720Z,21.30
2018-09-03T15:46:53.862Z,21.40
2018-09-03T15:49:21.998Z,21.40
2018-09-03T15:51:50.131Z,21.40
2018-09-03T15:54:18.346Z,21.40
2018-09-03T15:56:46.495Z,21.40
2018-09-03T15:59:24.245Z,21.40
2018-09-03T16:01:52.409Z,21.50
2018-09-03T16:04:20.553Z,21.30
2018-09-03T16:06:48.695Z,21.20
2018-09-03T16:09:16.996Z,21.00
2018-09-03T16:11:45.038Z,21.10
2018-09-03T16:14:13.201Z,21.10
2018-09-03T16:17:04.126Z,20.90
2018-09-03T16:19:32.262Z,20.80
2018-09-03T16:22:00.427Z,20.90
2018-09-03T16:24:28.592Z,20.90
2018-09-03T16:26:56.730Z,20.90
2018-09-03T16:29:24.893Z,20.80
2018-09-03T16:31:53.039Z,20.80
2018-09-03T16:34:21.239Z,20.70
2018-09-03T16:36:49.402Z,20.60
2018-09-03T16:39:17.585Z,20.60
2018-09-03T16:41:45.779Z,20.30
2018-09-03T16:44:13.921Z,20.50
2018-09-03T16:46:42.510Z,20.50
2018-09-03T16:49:11.257Z,20.50
2018-09-03T16:51:39.790Z,20.50
2018-09-03T16:54:07.942Z,20.50
2018-09-03T16:56:36.114Z,20.30
2018-09-03T16:59:04.279Z,20.10
2018-09-03T17:01:34.064Z,20.30
2018-09-03T17:04:01.982Z,20.20
2018-09-03T17:06:46.320Z,20.20
2018-09-03T17:09:14.521Z,20.10
2018-09-03T17:11:42.673Z,20.00
2018-09-03T17:14:10.821Z,19.90
2018-09-03T17:16:38.979Z,19.80
2018-09-03T17:19:07.595Z,19.80
2018-09-03T17:21:36.208Z,19.60
2018-09-03T17:24:04.360Z,19.60
2018-09-03T17:26:32.506Z,19.10
2018-09-03T17:29:00.670Z,19.40
2018-09-03T17:31:28.824Z,19.40
2018-09-03T17:33:56.980Z,19.70
2018-09-03T17:36:25.123Z,19.20
2018-09-03T17:38:53.304Z,19.20
2018-09-03T17:41:21.445Z,19.30
2018-09-03T17:43:49.603Z,19.10
2018-09-03T17:46:17.720Z,19.00
2018-09-03T17:48:45.857Z,19.10
2018-09-03T17:51:14.021Z,19.00
2018-09-03T17:56:10.074Z,19.20
2018-09-03T17:58:38.229Z,19.00
2018-09-03T18:01:06.368Z,19.20
2018-09-03T18:03:34.505Z,18.80
2018-09-03T18:06:02.670Z,18.60
2018-09-03T18:08:30.814Z,18.70
2018-09-03T18:10:59.004Z,18.60
2018-09-03T18:13:27.109Z,18.50
2018-09-03T18:15:55.269Z,18.30
2018-09-03T18:20:51.409Z,18.20
2018-09-03T18:23:19.551Z,18.10
2018-09-03T18:25:48.054Z,18.00
2018-09-03T18:33:12.509Z,18.10
2018-09-03T18:35:40.762Z,17.60
2018-09-03T18:38:09.115Z,17.80
2018-09-03T18:40:37.421Z,17.80
2018-09-03T18:43:05.697Z,17.70
2018-09-03T18:45:34.885Z,17.80
2018-09-03T18:48:03.020Z,17.70
2018-09-03T18:50:31.217Z,17.60
2018-09-03T18:52:59.488Z,17.60
2018-09-03T18:55:28.674Z,17.70
2018-09-03T18:57:56.804Z,17.50
2018-09-03T19:00:27.161Z,17.40
2018-09-03T19:02:55.592Z,17.50
2018-09-03T19:05:23.762Z,17.20
2018-09-03T19:07:51.908Z,17.00
2018-09-03T19:10:21.242Z,17.40
2018-09-03T19:12:50.090Z,17.20
2018-09-03T19:15:19.003Z,17.90
2018-09-03T19:17:47.280Z,17.00
2018-09-03T19:20:15.453Z,17.30
2018-09-03T19:22:43.601Z,17.20
2018-09-03T19:25:11.765Z,17.20
2018-09-03T19:27:41.336Z,17.20
2018-09-03T19:30:09.809Z,17.30
2018-09-03T19:32:37.985Z,17.20
2018-09-03T19:35:06.169Z,17.20
2018-09-03T19:37:34.413Z,17.20
2018-09-03T19:40:02.570Z,17.50
2018-09-03T19:42:30.753Z,17.40
2018-09-03T19:44:59.003Z,17.50
2018-09-03T19:47:27.172Z,17.30
2018-09-03T19:49:55.361Z,17.50
2018-09-03T19:52:23.554Z,17.20
2018-09-03T19:54:51.722Z,17.30
2018-09-03T19:57:19.965Z,17.20
2018-09-03T19:59:48.196Z,17.10
2018-09-03T20:07:12.289Z,16.60
2018-09-03T20:09:40.517Z,17.00
2018-09-03T20:12:08.942Z,17.00
2018-09-03T20:14:37.096Z,16.90
2018-09-03T20:17:05.655Z,16.90
2018-09-03T20:19:33.790Z,16.90
2018-09-03T20:22:02.109Z,16.70
2018-09-03T20:24:30.256Z,16.90
2018-09-03T20:26:58.415Z,16.70
2018-09-03T20:29:26.587Z,16.70
2018-09-03T20:34:22.673Z,16.70
2018-09-03T20:36:50.830Z,16.80
2018-09-03T20:39:18.966Z,16.80
2018-09-03T20:41:47.278Z,17.10
2018-09-03T20:44:15.665Z,16.80
2018-09-03T20:46:43.788Z,16.80
2018-09-03T20:49:12.168Z,16.80
2018-09-03T20:51:40.376Z,16.80
2018-09-03T20:54:08.496Z,16.70
2018-09-03T20:56:36.637Z,16.70
2018-09-03T20:59:04.915Z,16.70
2018-09-03T21:01:33.194Z,16.70
2018-09-03T21:04:01.292Z,16.80
2018-09-03T21:06:29.469Z,16.60
2018-09-03T21:08:57.642Z,16.60
2018-09-03T21:11:25.900Z,16.60
2018-09-03T21:13:54.076Z,16.40
2018-09-03T21:16:22.220Z,16.60
2018-09-03T21:18:50.386Z,16.60
2018-09-03T21:21:18.507Z,17.00
2018-09-03T21:23:46.667Z,16.50
2018-09-03T21:26:14.807Z,16.50
2018-09-03T21:28:43.166Z,16.40
2018-09-03T21:31:11.219Z,16.40
2018-09-03T21:33:39.363Z,16.40
2018-09-03T21:36:07.556Z,16.40
2018-09-03T21:38:35.693Z,16.30
2018-09-03T21:41:03.914Z,16.30
2018-09-03T21:43:32.071Z,16.20
2018-09-03T21:46:00.244Z,16.00
2018-09-03T21:48:28.408Z,16.00
2018-09-03T21:50:56.554Z,16.00
2018-09-03T21:53:24.750Z,16.00
2018-09-03T21:55:52.896Z,16.00
2018-09-03T21:58:21.023Z,15.60
2018-09-03T22:00:49.410Z,15.80
2018-09-03T22:03:17.552Z,15.80
2018-09-03T22:05:45.730Z,15.80
2018-09-03T22:08:13.901Z,15.70
2018-09-03T22:10:42.066Z,15.60
2018-09-03T22:13:10.215Z,15.60
2018-09-03T22:15:39.641Z,15.60
2018-09-03T22:18:08.017Z,15.40
2018-09-03T22:20:36.430Z,15.40
2018-09-03T22:23:04.571Z,15.40
2018-09-03T22:25:32.716Z,15.30
2018-09-03T22:30:28.787Z,15.30
2018-09-03T22:32:56.925Z,15.20
2018-09-03T22:35:25.218Z,15.20
2018-09-03T22:37:53.351Z,15.20
2018-09-03T22:40:21.498Z,15.20
2018-09-03T22:45:17.575Z,15.10
2018-09-03T22:47:45.706Z,15.00
2018-09-03T22:50:13.833Z,15.00
2018-09-03T22:52:41.964Z,15.00
2018-09-03T22:55:10.109Z,15.00
2018-09-03T22:57:38.253Z,15.00
2018-09-03T23:00:06.451Z,15.00
2018-09-03T23:05:10.696Z,14.90
2018-09-03T23:07:39.058Z,14.90
2018-09-03T23:10:07.269Z,14.80
2018-09-03T23:15:03.373Z,15.00
2018-09-03T23:17:31.570Z,14.70
2018-09-03T23:19:59.697Z,14.70
2018-09-03T23:22:27.959Z,14.70
2018-09-03T23:24:56.234Z,14.70
2018-09-03T23:27:24.544Z,14.70
2018-09-03T23:29:52.680Z,14.60
2018-09-03T23:32:20.857Z,14.70
2018-09-03T23:34:48.983Z,14.70
2018-09-03T23:37:17.122Z,14.90
2018-09-03T23:39:45.242Z,14.60
2018-09-03T23:42:13.382Z,14.50
2018-09-03T23:44:41.516Z,14.40
2018-09-03T23:47:09.656Z,14.40
2018-09-03T23:49:37.791Z,14.30
2018-09-03T23:52:05.968Z,14.30
2018-09-03T23:54:34.109Z,14.30
2018-09-03T23:57:02.242Z,14.20
2018-09-03T23:59:30.382Z,14.20
